ESOE

Örebro Airport

Örebro, Sweden
METAR ESOE 161420Z 03012KT 9999 -SN FEW006 BKN009 01/01 Q1001
Observed Flight Rules
Dec-16 @ 14:20 UTC (36 minutes ago) Instrument Flight Rules
Wind Visibility Clouds Conditions
30° at 12 knots 10,000+ meters
  • Few at 600' AGL
  • Broken at 900' AGL
  • Light Snow
Temperatures Readings
Current 1°C / 34°F
Dewpoint 1°C / 34°F
Humidity 100%
Altimeter 29.56" Hg
Pressure 1001 hPa
Elevation 57
METAR ESOE 161420Z 03012KT 9999 -SN FEW006 BKN009 01/01 Q1001
Observed Flight Rules
Dec-16 @ 14:20 UTC
(36 minutes ago)
IFR
Wind Visibility
30° at 12 knots 10,000+ meters
Clouds
  • Few at 600' AGL
  • Broken at 900' AGL
Conditions
  • Light Snow
Temperature Dewpoint
1°C / 34°F 1°C / 34°F
Humidity Altimeter Pressure
100% 29.56" Hg 1001 hPa